Time;durP1;ratioP1;P1;durP2;ratioP2;P2;SDS_P1;SDS_P2;PMS_P1;PMS_P2;Temp;Humidity;BMP_temperature;BMP_pressure;BME280_temperature;BME280_humidity;BME280_pressure;Samples;Min_cycle;Max_cycle;Signal;HPM_P1;HPM_P2
2023/08/05 00:00:06;;;;;;;10.15;2.90;;;;;;;16.08;100.00;101384.94;5023048;28;20025;-72
2023/08/05 00:02:33;;;;;;;6.30;3.85;;;;;;;16.03;100.00;101378.63;5023865;28;20399;-72
2023/08/05 00:04:59;;;;;;;11.05;3.50;;;;;;;15.95;100.00;101382.97;5029494;28;20029;-72
2023/08/05 00:07:24;;;;;;;6.60;2.97;;;;;;;15.93;100.00;101378.88;5020927;28;20041;-72
2023/08/05 00:09:50;;;;;;;6.22;3.22;;;;;;;15.92;100.00;101385.09;5022841;28;20087;-72
2023/08/05 00:12:15;;;;;;;7.05;3.50;;;;;;;15.91;100.00;101379.03;5022092;28;20519;-69
2023/08/05 00:14:40;;;;;;;5.35;3.00;;;;;;;15.88;100.00;101379.41;5022479;28;20044;-72
2023/08/05 00:17:06;;;;;;;7.20;4.00;;;;;;;15.86;100.00;101375.34;5026327;28;20048;-72
2023/08/05 00:19:31;;;;;;;8.57;3.05;;;;;;;15.86;100.00;101372.72;5026090;28;20044;-71
2023/08/05 00:21:57;;;;;;;5.50;4.32;;;;;;;15.87;100.00;101376.97;5023113;28;20034;-72
2023/08/05 00:24:22;;;;;;;4.97;3.50;;;;;;;15.87;100.00;101366.50;5019946;28;20041;-72
2023/08/05 00:26:48;;;;;;;6.25;3.60;;;;;;;15.87;100.00;101362.09;5025226;28;20038;-70
2023/08/05 00:29:13;;;;;;;8.75;3.60;;;;;;;15.87;100.00;101361.28;5023786;28;20041;-71
2023/08/05 00:31:39;;;;;;;5.10;3.28;;;;;;;15.85;100.00;101352.81;5023884;28;20075;-72
2023/08/05 00:34:04;;;;;;;7.85;3.30;;;;;;;15.84;100.00;101346.78;5028616;28;20048;-72
2023/08/05 00:36:29;;;;;;;4.80;3.05;;;;;;;15.83;100.00;101342.53;5025571;28;20084;-72
2023/08/05 00:38:55;;;;;;;7.47;3.00;;;;;;;15.79;100.00;101338.63;5023784;28;20026;-72
2023/08/05 00:41:20;;;;;;;8.82;3.63;;;;;;;15.74;100.00;101338.34;5011507;28;20885;-70
2023/08/05 00:43:46;;;;;;;8.23;3.55;;;;;;;15.74;100.00;101338.34;5007558;28;20037;-70
2023/08/05 00:46:12;;;;;;;3.80;2.90;;;;;;;15.72;100.00;101340.28;5007240;28;20033;-72
2023/08/05 00:48:38;;;;;;;8.90;3.00;;;;;;;15.69;100.00;101332.81;5023915;28;20036;-72
2023/08/05 00:51:08;;;;;;;4.88;3.30;;;;;;;15.67;100.00;101329.56;5029747;28;20600;-72
2023/08/05 00:53:36;;;;;;;6.30;2.85;;;;;;;15.65;100.00;101321.06;5005649;28;20033;-71
2023/08/05 00:56:01;;;;;;;2.65;2.40;;;;;;;15.64;100.00;101327.31;5025115;28;20649;-72
2023/08/05 00:58:28;;;;;;;3.85;2.67;;;;;;;15.61;100.00;101322.41;5029483;28;20088;-71
2023/08/05 01:00:54;;;;;;;8.43;3.42;;;;;;;15.58;100.00;101329.63;5027173;28;20033;-72
2023/08/05 01:03:20;;;;;;;5.13;2.75;;;;;;;15.55;100.00;101329.16;5027769;28;20506;-72
2023/08/05 01:05:49;;;;;;;7.70;3.30;;;;;;;15.50;100.00;101328.88;5024543;28;20033;-72
2023/08/05 01:08:17;;;;;;;7.40;2.83;;;;;;;15.44;100.00;101332.19;5028639;28;20486;-72
2023/08/05 01:10:43;;;;;;;4.72;3.03;;;;;;;15.42;100.00;101336.78;5026736;28;20045;-71
2023/08/05 01:13:09;;;;;;;5.00;2.78;;;;;;;15.38;100.00;101336.31;5010831;28;20080;-72
2023/08/05 01:15:34;;;;;;;3.30;2.47;;;;;;;15.37;100.00;101329.47;5027382;28;20463;-72
2023/08/05 01:18:02;;;;;;;8.13;3.10;;;;;;;15.35;100.00;101327.03;5010776;28;20017;-71
2023/08/05 01:20:33;;;;;;;6.18;3.50;;;;;;;15.33;100.00;101328.19;5024974;28;20124;-72
2023/08/05 01:23:07;;;;;;;4.97;3.03;;;;;;;15.30;100.00;101339.81;5011094;28;20033;-72
2023/08/05 01:25:34;;;;;;;6.70;3.05;;;;;;;15.24;100.00;101330.06;5021716;28;20033;-71
2023/08/05 01:28:01;;;;;;;7.30;3.03;;;;;;;15.19;100.00;101330.56;5029181;28;20031;-71
2023/08/05 01:30:28;;;;;;;4.78;3.03;;;;;;;15.18;100.00;101326.34;5026063;28;20026;-73
2023/08/05 01:32:55;;;;;;;5.85;3.28;;;;;;;15.16;100.00;101328.31;5026382;28;20036;-72
2023/08/05 01:35:21;;;;;;;8.05;3.35;;;;;;;15.14;100.00;101329.44;5007215;28;20032;-71
2023/08/05 01:37:47;;;;;;;4.20;3.03;;;;;;;15.10;100.00;101323.75;5004240;28;20044;-73
2023/08/05 01:40:13;;;;;;;5.25;3.15;;;;;;;14.98;100.00;101315.50;5007668;28;20041;-72
2023/08/05 01:42:39;;;;;;;4.00;2.67;;;;;;;14.90;100.00;101320.78;5027267;28;20025;-72
2023/08/05 01:45:05;;;;;;;11.27;3.00;;;;;;;14.85;100.00;101319.69;5028100;28;20492;-72
2023/08/05 01:47:31;;;;;;;6.75;3.20;;;;;;;14.83;100.00;101319.03;5027830;28;20863;-72
2023/08/05 01:49:56;;;;;;;4.32;2.95;;;;;;;14.81;100.00;101318.41;5022785;28;20033;-72
2023/08/05 01:52:23;;;;;;;5.07;2.80;;;;;;;14.81;100.00;101314.00;5009862;28;20917;-73
2023/08/05 01:54:48;;;;;;;7.70;3.10;;;;;;;14.81;100.00;101315.78;5025335;28;20037;-72
2023/08/05 01:57:14;;;;;;;6.18;2.83;;;;;;;14.80;100.00;101309.75;5025726;28;20490;-72
2023/08/05 01:59:39;;;;;;;4.00;3.25;;;;;;;14.72;100.00;101307.97;5006603;28;20034;-73
2023/08/05 02:02:05;;;;;;;4.25;2.60;;;;;;;14.62;100.00;101309.16;5009778;28;20546;-72
2023/08/05 02:04:30;;;;;;;4.65;3.38;;;;;;;14.58;100.00;101312.13;5002530;28;20068;-72
2023/08/05 02:06:56;;;;;;;6.20;3.17;;;;;;;14.58;100.00;101308.72;5024054;28;20420;-73
2023/08/05 02:09:22;;;;;;;4.57;2.88;;;;;;;14.56;100.00;101313.25;5023499;28;20064;-73
2023/08/05 02:11:47;;;;;;;5.93;2.78;;;;;;;14.55;100.00;101309.03;5022367;28;20041;-72
2023/08/05 02:14:12;;;;;;;5.40;2.70;;;;;;;14.48;100.00;101306.25;5009552;28;20037;-72
2023/08/05 02:16:38;;;;;;;5.75;2.65;;;;;;;14.41;100.00;101316.56;5026682;28;20052;-73
2023/08/05 02:19:03;;;;;;;7.00;2.80;;;;;;;14.33;100.00;101308.75;5023849;28;20026;-72
2023/08/05 02:21:31;;;;;;;8.43;3.28;;;;;;;14.26;100.00;101320.88;5005336;28;20037;-71
2023/08/05 02:23:56;;;;;;;4.93;3.35;;;;;;;14.21;100.00;101321.34;5011520;28;20402;-73
2023/08/05 02:26:22;;;;;;;6.43;3.65;;;;;;;14.21;100.00;101321.34;5022736;28;20036;-73
2023/08/05 02:28:47;;;;;;;2.90;2.60;;;;;;;14.21;100.00;101329.19;5021343;28;20081;-72
2023/08/05 02:31:13;;;;;;;4.80;2.25;;;;;;;14.17;100.00;101320.06;5022018;28;21419;-72
2023/08/05 02:33:39;;;;;;;6.20;2.95;;;;;;;14.11;100.00;101320.75;5025845;28;20034;-72
2023/08/05 02:36:04;;;;;;;7.88;3.10;;;;;;;14.05;100.00;101317.97;5009516;28;20657;-72
2023/08/05 02:38:30;;;;;;;7.38;2.80;;;;;;;14.00;100.00;101314.06;5009480;28;20029;-70
2023/08/05 02:40:58;;;;;;;9.35;2.75;;;;;;;13.98;100.00;101317.84;5008349;28;20037;-72
2023/08/05 02:43:24;;;;;;;4.72;2.63;;;;;;;13.96;100.00;101317.19;5014973;28;20029;-70
2023/08/05 02:45:56;;;;;;;7.32;2.83;;;;;;;13.98;100.00;101325.66;5027002;28;20630;-72
2023/08/05 02:48:26;;;;;;;8.02;3.35;;;;;;;13.99;100.00;101319.44;5027228;28;20044;-70
2023/08/05 02:50:52;;;;;;;4.35;2.70;;;;;;;14.00;100.00;101323.69;5028873;28;20447;-72
2023/08/05 02:53:19;;;;;;;4.75;3.10;;;;;;;13.99;100.00;101319.44;5024290;28;20140;-72
2023/08/05 02:55:45;;;;;;;6.13;2.90;;;;;;;13.95;100.00;101316.34;5022734;28;20120;-72
2023/08/05 02:58:10;;;;;;;5.25;3.15;;;;;;;13.88;100.00;101315.41;5008410;28;20499;-72
2023/08/05 03:00:36;;;;;;;12.30;2.95;;;;;;;13.79;100.00;101322.41;5022738;28;20108;-72
2023/08/05 03:03:02;;;;;;;5.63;3.50;;;;;;;13.71;100.00;101317.22;5020338;28;20692;-72
2023/08/05 03:05:28;;;;;;;6.65;3.17;;;;;;;13.66;100.00;101316.88;5023552;28;20033;-72
2023/08/05 03:07:55;;;;;;;5.55;3.60;;;;;;;13.63;100.00;101304.97;5005406;28;20399;-70
2023/08/05 03:10:20;;;;;;;5.82;3.40;;;;;;;13.63;100.00;101304.16;5020868;28;20139;-71
2023/08/05 03:12:46;;;;;;;4.72;3.38;;;;;;;13.69;100.00;101303.50;5020742;28;20132;-72
2023/08/05 03:15:11;;;;;;;5.68;3.08;;;;;;;13.71;100.00;101304.19;5022929;28;20026;-72
2023/08/05 03:17:37;;;;;;;9.13;3.80;;;;;;;13.71;100.00;101291.16;5021184;28;20024;-71
2023/08/05 03:20:04;;;;;;;5.97;3.58;;;;;;;13.66;100.00;101290.81;5023250;28;22002;-72
2023/08/05 03:22:32;;;;;;;8.23;3.47;;;;;;;13.68;100.00;101277.63;5006539;28;20526;-72
2023/08/05 03:24:59;;;;;;;6.38;3.88;;;;;;;13.72;100.00;101284.16;5023760;28;20415;-72
2023/08/05 03:27:25;;;;;;;6.47;3.08;;;;;;;13.73;100.00;101270.97;5005338;28;20448;-70
2023/08/05 03:29:53;;;;;;;6.28;3.17;;;;;;;13.74;100.00;101267.34;5024374;28;20029;-72
2023/08/05 03:32:20;;;;;;;4.35;2.85;;;;;;;13.76;100.00;101278.41;5018224;28;20037;-70
2023/08/05 03:34:45;;;;;;;6.80;3.50;;;;;;;13.76;100.00;101281.03;5020654;28;20492;-72
2023/08/05 03:37:11;;;;;;;5.50;3.00;;;;;;;13.79;100.00;101280.72;5006741;28;20076;-72
2023/08/05 03:39:37;;;;;;;5.07;3.58;;;;;;;13.81;100.00;101278.75;5002604;28;20081;-72
2023/08/05 03:42:02;;;;;;;6.05;3.50;;;;;;;13.81;100.00;101263.09;5022276;28;20123;-70
2023/08/05 03:44:28;;;;;;;5.35;3.40;;;;;;;13.82;100.00;101262.16;5023880;28;20032;-72
2023/08/05 03:46:54;;;;;;;6.18;3.80;;;;;;;13.78;100.00;101265.22;5024677;28;20029;-71
2023/08/05 03:49:19;;;;;;;7.90;3.50;;;;;;;13.73;100.00;101273.56;5026288;28;20044;-71
2023/08/05 03:51:46;;;;;;;7.13;3.10;;;;;;;13.62;100.00;101272.09;5021730;28;20025;-70
2023/08/05 03:54:12;;;;;;;6.13;3.63;;;;;;;13.58;100.00;101278.63;5022405;28;20539;-72
2023/08/05 03:56:37;;;;;;;6.28;3.50;;;;;;;13.55;100.00;101276.34;5021184;28;20032;-72
2023/08/05 03:59:03;;;;;;;4.28;3.10;;;;;;;13.56;100.00;101277.97;5021521;28;20041;-72
2023/08/05 04:01:30;;;;;;;8.63;3.17;;;;;;;13.57;100.00;101282.19;5024226;28;20539;-72
2023/08/05 04:03:55;;;;;;;5.03;3.67;;;;;;;13.55;100.00;101273.72;5008465;28;20025;-72
2023/08/05 04:06:24;;;;;;;6.30;3.25;;;;;;;13.52;100.00;101262.81;5019526;28;20026;-71
2023/08/05 04:08:53;;;;;;;12.65;3.28;;;;;;;13.50;100.00;101268.19;5020231;28;20415;-72
2023/08/05 04:11:19;;;;;;;6.75;3.55;;;;;;;13.49;100.00;101266.56;5025153;28;20040;-72
2023/08/05 04:13:45;;;;;;;4.57;3.65;;;;;;;13.48;100.00;101262.31;5003607;28;20045;-72
2023/08/05 04:16:11;;;;;;;8.70;3.92;;;;;;;13.47;100.00;101252.06;5019168;28;20032;-71
2023/08/05 04:18:40;;;;;;;7.38;3.47;;;;;;;13.47;100.00;101252.06;5022190;28;20040;-71
2023/08/05 04:21:08;;;;;;;5.13;3.40;;;;;;;13.49;100.00;101257.94;5005433;28;20534;-72
2023/08/05 04:23:34;;;;;;;8.82;4.55;;;;;;;13.50;100.00;101249.16;5017477;28;20090;-72
2023/08/05 04:26:02;;;;;;;8.27;4.50;;;;;;;13.52;100.00;101252.41;5019854;28;20033;-72
2023/08/05 04:28:28;;;;;;;5.35;3.15;;;;;;;13.51;100.00;101251.59;5019232;28;20037;-72
2023/08/05 04:30:53;;;;;;;5.72;4.03;;;;;;;13.52;100.00;101240.19;5024524;28;20044;-70
2023/08/05 04:33:19;;;;;;;7.70;4.07;;;;;;;13.53;100.00;101236.59;5018814;28;20045;-72
2023/08/05 04:35:49;;;;;;;7.43;3.83;;;;;;;13.57;100.00;101240.50;5011044;28;20041;-71
2023/08/05 04:38:15;;;;;;;8.65;3.80;;;;;;;13.61;100.00;101233.97;5017064;28;20547;-72
2023/08/05 04:40:40;;;;;;;7.75;4.07;;;;;;;13.67;100.00;101216.06;5027035;28;20037;-72
2023/08/05 04:43:06;;;;;;;9.75;5.22;;;;;;;13.68;100.00;101221.13;5020862;28;20068;-71
2023/08/05 04:45:31;;;;;;;8.45;4.50;;;;;;;13.72;100.00;101224.22;5024339;28;20519;-72
2023/08/05 04:47:57;;;;;;;6.53;4.30;;;;;;;13.75;100.00;101216.03;5026776;28;20024;-70
2023/08/05 04:50:22;;;;;;;7.70;5.10;;;;;;;13.79;100.00;101223.38;5022430;28;21023;-72
2023/08/05 04:52:48;;;;;;;8.18;4.95;;;;;;;13.83;100.00;101223.84;5025388;28;20399;-72
2023/08/05 04:55:17;;;;;;;8.98;4.65;;;;;;;13.85;100.00;101234.91;5026125;28;20116;-72
2023/08/05 04:57:43;;;;;;;7.32;5.35;;;;;;;13.89;100.00;101232.81;5023441;28;20127;-72
2023/08/05 05:00:09;;;;;;;8.88;5.18;;;;;;;13.94;100.00;101233.94;5023448;28;20515;-72
2023/08/05 05:02:36;;;;;;;11.10;5.28;;;;;;;14.01;100.00;101224.47;5026052;28;20038;-71
2023/08/05 05:05:03;;;;;;;7.38;5.82;;;;;;;14.08;100.00;101216.75;5025399;28;20069;-72
2023/08/05 05:07:28;;;;;;;12.50;5.95;;;;;;;14.09;100.00;101218.41;5024423;28;20061;-72
2023/08/05 05:09:54;;;;;;;8.07;6.13;;;;;;;14.13;100.00;101203.22;5023236;28;20041;-70
2023/08/05 05:12:19;;;;;;;8.90;5.68;;;;;;;14.16;100.00;101205.47;5023100;28;20051;-73
2023/08/05 05:14:45;;;;;;;15.00;7.30;;;;;;;14.21;100.00;101195.38;5022787;28;20029;-72
2023/08/05 05:17:15;;;;;;;9.48;6.32;;;;;;;14.23;100.00;101187.38;5028246;28;20033;-72
2023/08/05 05:19:41;;;;;;;9.18;5.75;;;;;;;14.24;100.00;101179.38;5026878;28;20041;-72
2023/08/05 05:22:06;;;;;;;7.55;5.40;;;;;;;14.29;100.00;101181.47;5025643;28;20025;-71
2023/08/05 05:24:32;;;;;;;10.32;6.80;;;;;;;14.33;100.00;101186.16;5027616;28;20029;-71
2023/08/05 05:26:58;;;;;;;16.17;6.70;;;;;;;14.39;100.00;101188.09;5028583;28;20033;-72
2023/08/05 05:29:23;;;;;;;7.95;5.85;;;;;;;14.45;100.00;101184.00;5008372;28;20033;-71
2023/08/05 05:31:49;;;;;;;11.30;6.80;;;;;;;14.52;100.00;101181.50;5026757;28;20033;-71
2023/08/05 05:34:15;;;;;;;14.43;6.93;;;;;;;14.59;100.00;101180.66;5025667;28;20392;-72
2023/08/05 05:36:40;;;;;;;11.40;6.55;;;;;;;14.61;100.00;101180.50;5030498;28;20385;-71
2023/08/05 05:39:05;;;;;;;10.55;6.35;;;;;;;14.63;100.00;101185.53;5025515;28;20096;-72
2023/08/05 05:41:31;;;;;;;11.23;7.00;;;;;;;14.70;100.00;101199.53;5028637;28;20040;-71
2023/08/05 05:43:58;;;;;;;12.75;6.63;;;;;;;14.72;100.00;101195.75;5028481;28;20695;-72
2023/08/05 05:46:24;;;;;;;9.40;6.03;;;;;;;14.71;100.00;101199.34;5022403;28;20048;-73
2023/08/05 05:48:49;;;;;;;11.10;7.40;;;;;;;14.70;100.00;101196.91;5024550;28;20037;-72
2023/08/05 05:51:15;;;;;;;13.23;6.63;;;;;;;14.75;100.00;101203.25;5028264;28;20041;-71
2023/08/05 05:53:40;;;;;;;16.75;6.95;;;;;;;14.82;100.00;101210.38;5030003;28;20496;-72
2023/08/05 05:56:06;;;;;;;16.33;8.93;;;;;;;14.86;100.00;101209.88;5026729;28;20029;-72
2023/08/05 05:58:35;;;;;;;12.30;7.95;;;;;;;14.88;100.00;101215.72;5025087;28;20059;-72
2023/08/05 06:01:01;;;;;;;12.43;6.20;;;;;;;14.91;100.00;101211.94;5027614;28;20034;-72
2023/08/05 06:03:27;;;;;;;11.20;7.07;;;;;;;14.98;100.00;101211.06;5026411;28;20041;-73
2023/08/05 06:05:53;;;;;;;11.23;7.03;;;;;;;15.02;100.00;101208.13;5029621;28;20029;-70
2023/08/05 06:08:18;;;;;;;11.25;6.65;;;;;;;14.99;100.00;101204.03;5022496;28;20037;-72
2023/08/05 06:10:44;;;;;;;13.75;7.68;;;;;;;15.10;100.00;101213.25;5028410;28;20037;-72
2023/08/05 06:13:09;;;;;;;17.67;7.72;;;;;;;15.10;100.00;101208.84;5027625;28;20033;-73
2023/08/05 06:15:39;;;;;;;13.63;7.63;;;;;;;15.09;100.00;101209.03;5020932;28;20034;-72
2023/08/05 06:18:04;;;;;;;10.50;6.65;;;;;;;15.13;100.00;101213.72;5026748;28;20104;-72
2023/08/05 06:20:30;;;;;;;12.65;6.93;;;;;;;15.25;100.00;101223.75;5024457;28;20396;-72
2023/08/05 06:22:55;;;;;;;14.43;7.53;;;;;;;15.30;100.00;101221.44;5023035;28;20049;-72
2023/08/05 06:25:21;;;;;;;13.48;7.45;;;;;;;15.41;100.00;101215.78;5026822;28;20033;-72
2023/08/05 06:27:46;;;;;;;12.52;6.78;;;;;;;15.50;100.00;101212.09;5024535;28;20041;-70
2023/08/05 06:30:11;;;;;;;14.05;8.07;;;;;;;15.56;100.00;101221.03;5022572;28;20036;-72
2023/08/05 06:32:37;;;;;;;16.65;8.43;;;;;;;15.88;100.00;101219.91;5027249;28;20507;-72
2023/08/05 06:35:03;;;;;;;17.98;8.68;;;;;;;16.24;100.00;101218.34;5025573;28;20041;-72
2023/08/05 06:37:28;;;;;;;12.90;8.00;;;;;;;16.31;100.00;101213.97;5026382;28;20057;-71
2023/08/05 06:39:54;;;;;;;16.67;8.25;;;;;;;16.20;100.00;101223.13;5025570;28;20557;-72
2023/08/05 06:42:23;;;;;;;16.90;8.95;;;;;;;16.38;100.00;101208.84;5029446;28;20944;-72
2023/08/05 06:44:49;;;;;;;20.83;10.27;;;;;;;16.68;100.00;101206.94;5023660;28;20377;-71
2023/08/05 06:47:14;;;;;;;18.63;9.52;;;;;;;16.75;97.67;101207.81;5027381;28;20064;-72
2023/08/05 06:49:40;;;;;;;14.90;9.35;;;;;;;16.78;97.62;101204.81;5022059;28;20037;-71
2023/08/05 06:52:06;;;;;;;17.30;9.93;;;;;;;16.97;96.17;101206.06;5026133;28;20434;-71
2023/08/05 06:54:31;;;;;;;15.35;8.75;;;;;;;17.22;94.96;101198.59;5026339;28;20040;-72
2023/08/05 06:56:57;;;;;;;14.85;9.15;;;;;;;17.47;94.58;101185.03;5027630;28;20468;-71
2023/08/05 06:59:22;;;;;;;13.65;8.40;;;;;;;17.51;92.42;101194.94;5021412;28;20033;-72
2023/08/05 07:01:48;;;;;;;14.00;8.23;;;;;;;17.74;94.26;101190.44;5024065;28;20508;-71
2023/08/05 07:04:14;;;;;;;13.23;7.45;;;;;;;17.89;91.43;101199.00;5026953;28;20041;-71
2023/08/05 07:06:40;;;;;;;11.27;7.90;;;;;;;18.34;90.35;101198.59;5008684;28;20033;-71
2023/08/05 07:09:06;;;;;;;16.08;7.05;;;;;;;18.59;87.43;101190.97;5025934;28;20037;-71
2023/08/05 07:11:31;;;;;;;15.40;6.80;;;;;;;18.60;86.38;101180.25;5026172;28;20046;-71
2023/08/05 07:13:57;;;;;;;14.60;6.05;;;;;;;18.35;86.65;101174.78;5025202;28;20059;-71
2023/08/05 07:16:22;;;;;;;10.35;5.50;;;;;;;18.27;88.24;101174.94;5028078;28;20112;-72
2023/08/05 07:18:48;;;;;;;9.32;5.50;;;;;;;18.39;88.65;101173.38;5027420;28;20029;-71
2023/08/05 07:21:15;;;;;;;8.13;4.15;;;;;;;18.39;89.02;101170.75;5023258;28;20436;-72
2023/08/05 07:23:40;;;;;;;7.32;4.68;;;;;;;18.45;86.59;101169.94;5022644;28;20083;-72
2023/08/05 07:26:06;;;;;;;7.70;4.85;;;;;;;18.94;84.87;101168.00;5022767;28;20026;-71
2023/08/05 07:28:31;;;;;;;11.80;4.53;;;;;;;19.52;83.22;101158.63;5021257;28;20041;-72
2023/08/05 07:31:05;;;;;;;5.97;3.95;;;;;;;19.67;80.34;101156.56;5026772;28;20045;-72
2023/08/05 07:33:31;;;;;;;7.78;4.60;;;;;;;19.23;80.09;101153.63;5023780;28;20752;-71
2023/08/05 07:35:56;;;;;;;9.88;5.28;;;;;;;19.28;81.05;101146.94;5026382;28;20144;-71
2023/08/05 07:38:25;;;;;;;6.03;4.13;;;;;;;19.49;81.23;101145.88;5024748;28;20396;-71
2023/08/05 07:40:55;;;;;;;11.55;3.90;;;;;;;20.11;79.01;101146.28;5025606;28;20064;-71
2023/08/05 07:43:24;;;;;;;6.93;3.70;;;;;;;20.36;76.09;101146.31;5022056;28;20040;-70
2023/08/05 07:45:52;;;;;;;8.23;3.15;;;;;;;20.38;75.07;101145.09;5022098;28;20543;-70
2023/08/05 07:48:18;;;;;;;5.43;3.38;;;;;;;20.23;78.45;101137.50;5022806;28;20076;-73
2023/08/05 07:50:43;;;;;;;6.55;3.78;;;;;;;19.96;76.89;101138.66;5024407;28;20884;-70
2023/08/05 07:53:09;;;;;;;8.20;4.40;;;;;;;19.63;79.57;101139.59;5022119;28;20451;-70
2023/08/05 07:55:36;;;;;;;6.28;3.97;;;;;;;19.57;80.55;101141.22;5025153;28;20131;-70
2023/08/05 07:58:04;;;;;;;9.20;3.85;;;;;;;19.51;81.49;101135.97;5021062;28;20515;-72
2023/08/05 08:00:30;;;;;;;11.52;5.05;;;;;;;19.72;77.91;101127.84;5022688;28;20139;-71
2023/08/05 08:02:55;;;;;;;8.70;4.05;;;;;;;20.01;77.18;101142.28;5023162;28;20045;-71
2023/08/05 08:05:21;;;;;;;7.78;4.07;;;;;;;20.01;76.29;101136.22;5023928;28;20013;-69
2023/08/05 08:07:47;;;;;;;5.40;3.65;;;;;;;20.13;77.96;101141.59;5024048;28;20045;-70
2023/08/05 08:10:16;;;;;;;7.93;3.50;;;;;;;20.13;78.05;101125.81;5023223;28;20030;-70
2023/08/05 08:12:43;;;;;;;13.02;3.63;;;;;;;20.49;76.80;101122.53;5024099;28;20037;-70
2023/08/05 08:15:09;;;;;;;7.35;3.30;;;;;;;20.68;74.30;101115.56;5026696;28;20033;-69
2023/08/05 08:17:35;;;;;;;7.32;3.53;;;;;;;20.56;76.26;101106.69;5023526;28;20515;-71
2023/08/05 08:20:00;;;;;;;8.18;3.75;;;;;;;20.35;76.72;101108.66;5024148;28;20029;-71
2023/08/05 08:22:26;;;;;;;7.07;3.70;;;;;;;20.64;76.17;101101.16;5026705;28;20034;-71
2023/08/05 08:24:52;;;;;;;6.07;3.38;;;;;;;20.78;73.14;101094.78;5020775;28;20038;-71
2023/08/05 08:27:17;;;;;;;10.38;4.28;;;;;;;20.58;72.93;101084.38;5023262;28;20022;-71
2023/08/05 08:29:43;;;;;;;8.50;4.13;;;;;;;20.78;72.82;101086.06;5022633;28;20064;-70
2023/08/05 08:32:08;;;;;;;7.60;3.30;;;;;;;21.00;72.83;101068.81;5024231;28;20052;-70
2023/08/05 08:34:34;;;;;;;8.45;3.80;;;;;;;21.04;72.81;101073.66;5023661;28;20048;-71
2023/08/05 08:37:00;;;;;;;5.75;3.17;;;;;;;20.96;70.71;101070.28;5024547;28;20411;-72
2023/08/05 08:39:25;;;;;;;12.60;2.90;;;;;;;20.77;70.40;101066.00;5025966;28;20120;-71
2023/08/05 08:41:53;;;;;;;6.70;3.17;;;;;;;20.71;72.70;101053.72;5025274;28;20435;-71
2023/08/05 08:44:19;;;;;;;6.30;2.50;;;;;;;20.53;71.50;101055.25;5023653;28;20048;-71
2023/08/05 08:46:47;;;;;;;7.10;2.70;;;;;;;20.88;70.33;101048.69;5016837;28;20535;-72
2023/08/05 08:49:13;;;;;;;9.38;2.70;;;;;;;20.98;68.14;101044.53;5024051;28;22096;-71
2023/08/05 08:51:40;;;;;;;5.43;2.30;;;;;;;21.13;68.26;101038.06;5028779;28;20614;-71
2023/08/05 08:54:06;;;;;;;7.85;2.95;;;;;;;20.95;67.73;101037.03;5024076;28;20038;-70
2023/08/05 08:56:32;;;;;;;6.20;2.05;;;;;;;21.25;68.01;101031.03;5012288;28;20040;-70
2023/08/05 08:58:57;;;;;;;6.82;2.30;;;;;;;21.53;67.95;101017.31;5037771;28;20091;-71
2023/08/05 09:01:24;;;;;;;3.25;1.75;;;;;;;21.94;65.36;101014.91;5027356;28;20464;-72
2023/08/05 09:03:51;;;;;;;3.35;1.60;;;;;;;21.89;63.88;101010.31;5029325;28;20113;-70
2023/08/05 09:06:20;;;;;;;3.78;1.83;;;;;;;22.46;62.84;101012.47;5030476;28;20637;-71
2023/08/05 09:08:47;;;;;;;3.22;1.92;;;;;;;22.58;61.32;101001.91;5026410;28;20056;-70
2023/08/05 09:11:14;;;;;;;4.22;2.17;;;;;;;23.08;62.17;101005.88;5026752;28;20560;-70
2023/08/05 09:13:40;;;;;;;4.55;1.95;;;;;;;23.62;60.14;100994.97;5028782;28;20037;-70
2023/08/05 09:16:05;;;;;;;6.22;2.22;;;;;;;23.11;58.52;100995.66;5029472;28;20045;-70
2023/08/05 09:18:31;;;;;;;7.05;2.00;;;;;;;23.24;58.57;100989.25;5028951;28;20033;-71
2023/08/05 09:20:59;;;;;;;9.73;2.22;;;;;;;23.62;54.75;100998.44;5027555;28;20037;-71
2023/08/05 09:23:24;;;;;;;4.07;2.10;;;;;;;23.96;55.72;100990.56;5026740;28;20108;-71
2023/08/05 09:25:50;;;;;;;4.68;2.03;;;;;;;24.06;57.28;100977.47;5022417;28;20044;-71
2023/08/05 09:28:35;;;;;;;4.57;2.15;;;;;;;24.03;55.68;100980.59;5025116;28;20127;-72
2023/08/05 09:31:16;;;;;;;5.22;2.33;;;;;;;23.42;56.59;100979.53;5030383;28;20045;-71
2023/08/05 09:33:42;;;;;;;3.25;2.17;;;;;;;24.04;56.25;100984.06;5027359;28;20052;-72
2023/08/05 09:36:10;;;;;;;5.80;1.98;;;;;;;23.33;57.98;100974.63;5028740;28;20112;-71
2023/08/05 09:38:37;;;;;;;5.53;2.40;;;;;;;23.02;60.32;100981.16;5007482;28;20029;-71
2023/08/05 09:41:03;;;;;;;5.25;2.55;;;;;;;23.19;61.03;100975.97;5024909;28;20075;-71
2023/08/05 09:43:34;;;;;;;4.40;2.10;;;;;;;23.00;60.80;100967.38;5024341;28;20030;-71
2023/08/05 09:46:04;;;;;;;4.68;2.13;;;;;;;22.87;61.38;100965.00;5028606;28;20041;-71
2023/08/05 09:48:43;;;;;;;2.95;2.22;;;;;;;22.79;61.28;100962.69;5024898;28;20033;-72
2023/08/05 09:51:16;;;;;;;3.58;2.13;;;;;;;23.13;56.75;100953.06;5026416;28;20033;-71
2023/08/05 09:53:42;;;;;;;;;;;;;;;23.06;55.89;100947.94;5025204;28;20392;-71
2023/08/05 09:56:10;;;;;;;3.30;2.00;;;;;;;22.70;59.87;100955.13;5026276;28;19940;-72
2023/08/05 09:58:37;;;;;;;3.88;2.55;;;;;;;22.59;60.63;100952.53;5027845;28;20029;-72
2023/08/05 10:01:09;;;;;;;5.97;2.10;;;;;;;22.20;60.33;100942.41;5024180;28;20025;-71
2023/08/05 10:03:40;;;;;;;3.15;1.90;;;;;;;22.76;57.67;100937.53;5019577;28;20040;-77
2023/08/05 10:06:08;;;;;;;3.00;2.13;;;;;;;22.67;58.74;100929.16;5029066;28;20030;-73
2023/08/05 10:08:39;;;;;;;4.70;2.38;;;;;;;23.11;59.85;100934.81;5024047;28;20072;-72
2023/08/05 10:11:06;;;;;;;4.53;2.03;;;;;;;23.39;56.11;100924.47;5027887;28;20475;-73
2023/08/05 10:13:37;;;;;;;4.32;2.00;;;;;;;23.42;57.07;100932.72;5029358;28;20508;-71
2023/08/05 10:16:05;;;;;;;3.97;2.03;;;;;;;23.08;57.36;100929.19;5023418;28;20029;-72
2023/08/05 10:18:32;;;;;;;3.60;2.00;;;;;;;22.85;57.00;100928.22;5025238;28;20047;-72
2023/08/05 10:21:03;;;;;;;5.05;2.65;;;;;;;22.38;58.50;100925.66;5024416;28;20025;-72
2023/08/05 10:23:32;;;;;;;4.53;2.25;;;;;;;22.45;57.96;100907.03;5023480;28;20029;-74
2023/08/05 10:26:00;;;;;;;4.15;2.00;;;;;;;22.80;59.39;100906.97;5028516;28;20438;-71
2023/08/05 10:28:26;;;;;;;8.63;2.08;;;;;;;22.87;56.24;100899.72;5023100;28;20100;-72
2023/08/05 10:30:53;;;;;;;3.83;1.80;;;;;;;22.78;58.15;100898.47;5004466;28;20122;-72
2023/08/05 10:33:19;;;;;;;2.25;1.80;;;;;;;22.44;56.44;100911.53;5021819;28;20095;-71
2023/08/05 10:35:48;;;;;;;2.20;1.75;;;;;;;22.21;57.36;100893.03;5023992;28;20254;-71
2023/08/05 10:38:21;;;;;;;4.75;1.80;;;;;;;22.06;59.81;100896.94;5027576;28;20101;-71
2023/08/05 10:40:49;;;;;;;2.85;1.70;;;;;;;22.03;59.98;100886.84;5025059;28;20045;-70
2023/08/05 10:43:30;;;;;;;3.97;1.73;;;;;;;22.21;60.09;100874.53;5027047;28;20025;-71
2023/08/05 10:46:05;;;;;;;2.80;1.63;;;;;;;22.39;58.13;100873.63;5027249;28;20037;-71
2023/08/05 10:48:50;;;;;;;2.53;1.15;;;;;;;22.35;56.39;100873.28;5022472;28;20598;-73
2023/08/05 10:51:18;;;;;;;2.17;1.15;;;;;;;22.62;55.31;100872.78;5024979;28;20049;-71
2023/08/05 10:53:55;;;;;;;1.55;1.13;;;;;;;22.81;54.53;100873.41;5026101;28;20057;-71
2023/08/05 10:56:29;;;;;;;3.60;1.20;;;;;;;22.85;56.14;100866.59;5026178;28;20029;-71
2023/08/05 10:58:54;;;;;;;1.58;1.17;;;;;;;22.67;54.52;100863.09;5023306;28;20052;-71
2023/08/05 11:01:20;;;;;;;4.15;1.00;;;;;;;22.46;55.50;100861.09;5023183;28;20029;-71
2023/08/05 11:03:56;;;;;;;1.42;1.00;;;;;;;22.17;57.20;100858.38;5022775;28;20112;-71
2023/08/05 11:06:24;;;;;;;1.48;1.02;;;;;;;22.21;56.75;100848.97;5027397;28;20040;-71
2023/08/05 11:08:49;;;;;;;2.65;1.20;;;;;;;22.11;58.98;100854.81;5024018;28;20077;-72
2023/08/05 11:11:15;;;;;;;2.58;0.93;;;;;;;22.02;56.86;100850.94;5027109;28;20033;-71
2023/08/05 11:13:43;;;;;;;5.20;1.15;;;;;;;22.02;57.59;100850.09;5030061;28;20044;-72
2023/08/05 11:16:13;;;;;;;1.60;1.00;;;;;;;21.88;58.34;100854.81;5024537;28;20390;-69